Stations météo

réclame
Mon MeteoGroup
Herwijnen aws, Pays-Bas (6356): Température de l'air & dewpoint: 14.04.2018 22:00:00 - 20.04.2018 22:00:00 (CEST)Herwijnen aws, Pays-Bas (6356): Température de l'air 5cm: 14.04.2018 22:00:00 - 20.04.2018 22:00:00 (CEST)Herwijnen aws, Pays-Bas (6356): Vitesse du vent & gusts: 14.04.2018 22:00:00 - 20.04.2018 22:00:00 (CEST)Herwijnen aws, Pays-Bas (6356): Direction du vent: 14.04.2018 22:00:00 - 20.04.2018 22:00:00 (CEST)Herwijnen aws, Pays-Bas (6356): reduced air pressure: 14.04.2018 22:00:00 - 20.04.2018 22:00:00 (CEST)Herwijnen aws, Pays-Bas (6356): Quantités de précipitations: 14.04.2018 22:00:00 - 20.04.2018 22:00:00 (CEST)
Date & Time tt [°C] td [°C] tt 5cm [°C] ff [km/h] ff [knt] fx [km/h] fx [knt] dd ppp [hPa] rr [mm]
20.04.2018 22:00:00 14,5 11,5 11,8 7 4 - - NW 1022,1 -
20.04.2018 21:00:00 17,5 12,5 15,0 7 4 14 8 NW 1021,9 0,0
20.04.2018 20:00:00 20,9 12,7 18,9 11 6 14 8 NW 1021,4 0,0
20.04.2018 19:00:00 23,2 10,9 22,0 11 6 22 12 WNW 1021,4 0,0
20.04.2018 18:00:00 24,4 11,2 24,2 14 8 25 14 WNW 1021,6 0,0
20.04.2018 17:00:00 24,8 12,6 25,2 18 10 29 16 WNW 1021,7 0,0
20.04.2018 16:00:00 25,4 14,2 26,1 18 10 29 16 W 1021,9 0,0
20.04.2018 15:00:00 25,7 15,0 27,1 14 8 22 12 W 1022,1 0,0
20.04.2018 14:00:00 25,0 14,8 26,7 14 8 22 12 W 1022,4 0,1
20.04.2018 13:00:00 24,8 15,3 27,1 11 6 14 8 W 1022,7 0,8
20.04.2018 12:00:00 23,6 15,7 25,9 7 4 14 8 WSW 1022,8 0,0
20.04.2018 11:00:00 22,3 14,9 25,2 7 4 11 6 SW 1022,7 0,0
20.04.2018 10:00:00 20,5 13,7 22,0 7 4 11 6 SSW 1022,6 0,0
20.04.2018 09:00:00 18,1 13,1 17,7 4 2 11 6 SSW 1022,6 0,0
20.04.2018 08:00:00 14,6 12,4 12,9 7 4 7 4 S 1022,6 0,0
20.04.2018 07:00:00 11,9 10,4 7,8 7 4 7 4 S 1022,5 0,0
20.04.2018 06:00:00 11,3 10,7 6,5 4 2 7 4 S 1022,4 0,0
20.04.2018 05:00:00 12,0 10,4 7,9 7 4 7 4 SSE 1022,7 0,0
20.04.2018 04:00:00 11,5 10,4 6,8 4 2 7 4 S 1022,9 0,0
20.04.2018 03:00:00 11,5 10,2 7,1 4 2 7 4 S 1023,0 0,0
20.04.2018 02:00:00 12,1 10,3 8,1 4 2 7 4 S 1023,4 0,0
20.04.2018 01:00:00 12,6 11,1 7,9 0 0 7 4 N 1023,2 0,0
20.04.2018 00:00:00 13,6 10,8 9,7 4 2 14 8 W 1023,3 0,0
19.04.2018 23:00:00 17,7 9,5 13,4 7 4 18 10 W 1023,5 0,0
19.04.2018 22:00:00 18,9 9,3 13,0 11 6 14 8 SE 1023,6 0,0
19.04.2018 21:00:00 22,0 9,5 15,4 11 6 14 8 SE 1023,3 0,0
19.04.2018 20:00:00 22,7 10,7 19,8 7 4 14 8 ESE 1023,1 0,0
19.04.2018 19:00:00 24,5 13,7 23,7 11 6 25 14 ESE 1023,4 0,0
19.04.2018 18:00:00 26,5 9,4 25,7 14 8 29 16 ESE 1023,6 0,0
19.04.2018 17:00:00 27,0 11,2 27,1 18 10 29 16 SE 1024,1 0,0
19.04.2018 16:00:00 27,3 13,1 27,6 14 8 25 14 ESE 1024,6 0,0
19.04.2018 15:00:00 26,2 13,2 26,9 14 8 25 14 ESE 1025,3 0,0
19.04.2018 14:00:00 25,2 13,1 26,1 18 10 29 16 ESE 1025,7 0,0
19.04.2018 13:00:00 24,5 12,0 26,1 18 10 25 14 SE 1026,2 0,0
19.04.2018 12:00:00 23,1 12,7 24,9 14 8 22 12 ESE 1026,7 0,0
19.04.2018 11:00:00 21,9 12,6 23,0 14 8 22 12 ESE 1026,8 0,0
19.04.2018 10:00:00 19,6 12,0 20,0 14 8 22 12 ESE 1026,9 0,0
19.04.2018 09:00:00 17,1 11,1 17,1 14 8 22 12 E 1027,2 0,0
19.04.2018 08:00:00 14,3 9,5 13,1 11 6 18 10 E 1027,2 0,0
19.04.2018 07:00:00 12,2 8,4 10,4 11 6 14 8 E 1027,0 0,0
19.04.2018 06:00:00 12,5 8,6 10,4 11 6 14 8 E 1027,0 0,0
19.04.2018 05:00:00 12,5 8,5 10,5 11 6 14 8 E 1027,2 0,0
19.04.2018 04:00:00 13,1 8,7 11,0 11 6 18 10 ESE 1027,4 0,0
19.04.2018 03:00:00 13,4 8,9 11,8 11 6 18 10 E 1027,6 0,0
19.04.2018 02:00:00 15,0 9,4 12,9 11 6 18 10 E 1028,1 0,0
19.04.2018 01:00:00 15,2 9,7 11,3 14 8 18 10 E 1028,5 0,0
19.04.2018 00:00:00 15,3 9,3 10,3 7 4 14 8 ENE 1028,6 0,0
18.04.2018 23:00:00 16,3 9,6 12,3 7 4 14 8 NE 1028,8 0,0
18.04.2018 22:00:00 15,6 10,7 12,6 7 4 11 6 ENE 1028,7 0,0
18.04.2018 21:00:00 18,0 10,9 14,5 7 4 11 6 ENE 1028,4 0,0
18.04.2018 20:00:00 20,6 12,0 18,2 4 2 18 10 ENE 1028,5 0,0
18.04.2018 19:00:00 22,9 11,7 21,8 7 4 14 8 ENE 1028,6 0,0
18.04.2018 18:00:00 23,5 12,6 23,4 11 6 18 10 E 1029,0 0,0
18.04.2018 17:00:00 23,4 9,5 24,4 7 4 22 12 ESE 1029,5 0,0
18.04.2018 16:00:00 23,0 10,9 25,2 11 6 18 10 SE 1029,8 0,0
18.04.2018 15:00:00 22,7 10,1 25,0 11 6 22 12 SE 1030,5 0,0
18.04.2018 14:00:00 22,3 10,2 25,4 11 6 18 10 SSE 1030,8 0,0
18.04.2018 13:00:00 21,3 9,0 24,0 7 4 18 10 SSE 1031,1 0,0
18.04.2018 12:00:00 20,7 10,7 23,3 11 6 18 10 SSE 1031,4 0,0
18.04.2018 11:00:00 19,1 10,9 21,4 7 4 11 6 SSE 1031,5 0,0
18.04.2018 10:00:00 16,8 11,4 18,2 4 2 11 6 S 1031,2 0,0
18.04.2018 09:00:00 14,1 9,9 14,9 7 4 7 4 S 1030,8 0,0
18.04.2018 08:00:00 11,4 9,0 9,9 4 2 11 6 SE 1030,5 0,0
18.04.2018 07:00:00 7,3 6,2 4,1 7 4 11 6 SE 1029,8 0,0
18.04.2018 06:00:00 7,4 6,3 3,4 7 4 7 4 SE 1029,3 0,0
18.04.2018 05:00:00 7,8 6,3 4,1 7 4 11 6 SE 1029,1 0,0
18.04.2018 04:00:00 8,3 7,1 5,0 4 2 7 4 SE 1028,4 0,0
18.04.2018 03:00:00 8,1 6,7 5,7 7 4 7 4 SE 1028,2 0,0
18.04.2018 02:00:00 9,3 7,4 5,5 7 4 11 6 SSE 1028,0 0,0
18.04.2018 01:00:00 9,1 7,6 5,0 4 2 7 4 SSE 1027,7 0,0
18.04.2018 00:00:00 9,9 8,6 5,3 4 2 7 4 S 1027,3 0,0
17.04.2018 23:00:00 10,8 9,1 6,3 4 2 7 4 S 1027,1 0,0
17.04.2018 22:00:00 12,0 8,8 7,5 4 2 7 4 SSW 1026,6 0,0
17.04.2018 21:00:00 15,1 8,5 9,7 4 2 7 4 S 1025,9 0,0
17.04.2018 20:00:00 16,7 9,8 15,0 7 4 11 6 SW 1025,2 0,0
17.04.2018 19:00:00 18,6 9,8 18,1 7 4 22 12 SSW 1024,8 0,0
17.04.2018 18:00:00 20,0 7,9 21,0 7 4 29 16 S 1024,9 0,0
17.04.2018 17:00:00 19,9 8,5 21,1 18 10 29 16 SSW 1024,6 0,0
17.04.2018 16:00:00 19,5 8,8 21,8 18 10 25 14 SW 1024,3 0,0
17.04.2018 15:00:00 18,7 8,4 20,8 18 10 29 16 SSW 1024,3 0,0
17.04.2018 14:00:00 18,5 8,1 21,1 18 10 29 16 SSW 1024,5 0,0
17.04.2018 13:00:00 18,0 8,8 19,8 14 8 32 18 S 1024,6 0,0
17.04.2018 12:00:00 16,8 6,7 18,6 18 10 32 18 S 1024,7 0,0
17.04.2018 11:00:00 16,0 9,1 17,3 18 10 25 14 S 1024,5 0,0
17.04.2018 10:00:00 13,7 9,0 14,7 18 10 25 14 SSE 1024,3 0,0
17.04.2018 09:00:00 11,1 8,1 10,9 11 6 18 10 SSE 1024,2 0,0
17.04.2018 08:00:00 7,8 6,3 6,1 7 4 11 6 SE 1023,7 0,0
17.04.2018 07:00:00 4,4 3,9 1,6 0 0 7 4 N 1023,5 0,0
17.04.2018 06:00:00 5,5 4,6 2,7 4 2 11 6 ESE 1022,3 0,0
17.04.2018 05:00:00 6,1 5,3 3,1 7 4 14 8 SE 1022,3 0,0
17.04.2018 04:00:00 6,5 5,1 3,4 7 4 14 8 SSE 1022,3 0,0
17.04.2018 03:00:00 5,3 4,6 2,4 7 4 11 6 SE 1022,0 0,0
17.04.2018 02:00:00 6,2 5,4 2,5 4 2 7 4 SE 1021,9 0,0
17.04.2018 01:00:00 6,5 5,2 2,5 4 2 7 4 SSE 1021,5 0,0
17.04.2018 00:00:00 6,0 5,0 3,4 7 4 7 4 SE 1021,2 0,0
16.04.2018 23:00:00 8,1 5,8 3,8 4 2 4 2 SE 1020,6 0,0
16.04.2018 22:00:00 8,1 5,0 4,0 4 2 11 6 W 1020,3 0,0
16.04.2018 21:00:00 9,3 6,0 7,0 11 6 18 10 W 1019,8 0,0
16.04.2018 20:00:00 11,6 6,9 11,0 14 8 25 14 W 1018,5 0,0
16.04.2018 19:00:00 13,9 7,8 13,9 18 10 29 16 W 1017,7 0,0
16.04.2018 18:00:00 14,7 8,2 15,5 22 12 29 16 W 1017,5 0,0
16.04.2018 17:00:00 15,0 8,7 16,7 18 10 25 14 W 1017,2 0,0
16.04.2018 16:00:00 15,0 8,7 15,7 18 10 29 16 W 1017,0 0,0
16.04.2018 15:00:00 15,3 8,5 18,4 18 10 32 18 WSW 1016,6 0,1
16.04.2018 14:00:00 14,6 8,7 15,7 14 8 32 18 W 1016,3 0,0
16.04.2018 13:00:00 13,9 8,6 15,6 22 12 29 16 WSW 1016,0 0,0
16.04.2018 12:00:00 13,1 8,3 15,3 22 12 29 16 WSW 1015,8 0,0
16.04.2018 11:00:00 12,7 9,2 13,7 18 10 25 14 WSW 1015,1 0,0
16.04.2018 10:00:00 12,4 9,3 13,3 18 10 25 14 WSW 1014,5 0,0
16.04.2018 09:00:00 11,5 9,4 11,7 11 6 18 10 WSW 1013,9 0,0
16.04.2018 08:00:00 10,4 9,7 9,5 11 6 14 8 SW 1013,1 0,0
16.04.2018 07:00:00 8,6 8,1 7,0 7 4 11 6 SSW 1012,5 0,0
16.04.2018 06:00:00 9,3 8,6 6,4 7 4 11 6 S 1011,9 0,0
16.04.2018 05:00:00 9,7 8,6 7,2 7 4 11 6 S 1011,5 0,0
16.04.2018 04:00:00 11,0 9,8 10,2 7 4 14 8 SSW 1011,2 0,0
16.04.2018 03:00:00 12,0 10,1 11,3 7 4 22 12 S 1010,8 0,3
16.04.2018 02:00:00 12,3 9,9 10,5 14 8 22 12 WSW 1011,0 0,0
16.04.2018 01:00:00 10,9 10,6 8,2 0 0 7 4 N 1010,4 0,0
16.04.2018 00:00:00 11,7 11,1 10,5 4 2 7 4 SW 1010,5 0,0
15.04.2018 23:00:00 12,6 11,8 11,3 4 2 4 2 ESE 1010,6 0,0
15.04.2018 22:00:00 12,7 11,6 11,3 4 2 7 4 E 1010,6 0,0
15.04.2018 21:00:00 13,6 12,6 12,8 4 2 7 4 N 1010,5 0,0
15.04.2018 20:00:00 14,8 12,5 14,3 4 2 7 4 N 1010,2 0,0
15.04.2018 19:00:00 15,6 12,4 15,6 4 2 7 4 N 1009,9 0,0
15.04.2018 18:00:00 15,7 11,8 15,8 7 4 22 12 NW 1009,9 0,0
15.04.2018 17:00:00 16,7 11,1 17,1 11 6 22 12 SSW 1010,1 0,0
15.04.2018 16:00:00 16,7 11,7 16,2 7 4 14 8 SSW 1010,6 0,0
15.04.2018 15:00:00 16,6 11,1 17,1 7 4 18 10 SSW 1010,9 0,0
15.04.2018 14:00:00 16,4 11,3 17,7 11 6 22 12 S 1011,2 0,0
15.04.2018 13:00:00 16,5 11,5 16,6 11 6 22 12 S 1011,6 0,0
15.04.2018 12:00:00 15,2 11,5 16,8 11 6 18 10 SSW 1012,0 0,0
15.04.2018 11:00:00 14,7 11,5 15,4 11 6 22 12 S 1012,4 0,0
15.04.2018 10:00:00 13,7 11,5 14,2 14 8 22 12 S 1012,8 0,0
15.04.2018 09:00:00 12,4 11,6 13,1 11 6 18 10 SSE 1013,2 0,0
15.04.2018 08:00:00 11,2 10,9 11,2 11 6 18 10 SSE 1013,6 0,0
15.04.2018 07:00:00 10,1 9,9 9,8 7 4 11 6 ESE 1013,7 0,0
15.04.2018 06:00:00 10,0 9,6 9,9 7 4 14 8 ESE 1014,0 0,3
15.04.2018 05:00:00 10,0 9,6 9,9 11 6 18 10 ESE 1014,5 0,2
15.04.2018 04:00:00 10,3 9,9 10,2 11 6 14 8 E 1014,8 0,1
15.04.2018 03:00:00 10,3 9,9 10,2 11 6 18 10 E 1015,5 1,4
15.04.2018 02:00:00 10,4 9,9 10,3 11 6 14 8 ENE 1016,1 2,2
15.04.2018 01:00:00 10,4 9,4 10,3 7 4 11 6 SE 1017,2 1,4
15.04.2018 00:00:00 11,2 8,4 10,5 4 2 11 6 ESE 1017,3 0,0
14.04.2018 23:00:00 11,6 8,7 11,0 7 4 11 6 NNE 1017,2 0,0
14.04.2018 22:00:00 11,7 9,3 11,2 7 4 11 6 NE 1017,4 0,0

tt = Température de l'air
td = dewpoint
tt 5cm = Température de l'air 5cm
ff = Vitesse du vent
fx = gusts
dd = Direction du vent
ppp = reduced air pressure
rr = Quantités de précipitations

stations d'obs. à proximité